• Join FlightAware (Why Join?)
  • Login
  • US Flag 
01:15AM EDT


 

Airport Tracker/Info


-or-


 

Live Flight TrackerFlight Track Log ✈ C-GILV ✈ 25-Jun-2013 ✈ KCEF - CYHZ

Flight Track Log - Related Links

Times and Time Zones

All times are in EDT time to prevent confusion due to time zone crossing. See the C-GILV flight status page for this flight to view local times or setup timezone preferences in your user account.

Time Position Orientation Groundspeed Altitude Reporting Facility
EDT Latitude Longitude Course Direction KTS MPH feet Rate Location/Type
03:33PM 42.1856 -72.5408 270° West 100 115 600  Level Boston Center
03:33PM 42.1856 -72.5661 270° West 116 133 1,400 780 Climbing Boston Center
03:34PM 42.2169 -72.5633 North 136 157 2,100 780 Climbing Boston Center
03:35PM 42.2378 -72.5214 56° Northeast 137 158 3,000 840 Climbing Boston Center
03:37PM 42.2567 -72.4625 67° East 137 158 4,000 780 Climbing Boston Center
03:37PM 42.2692 -72.4289 63° Northeast 137 158 4,600 780 Climbing Boston Center
03:38PM 42.2858 -72.3700 69° East 146 168 5,500 660 Climbing Boston Center
03:40PM 42.3086 -72.3081 64° Northeast 165 190 6,300 720 Climbing Boston Center
03:41PM 42.3461 -72.2717 36° Northeast 154 177 7,300 840 Climbing Boston Center
03:42PM 42.3794 -72.2322 41° Northeast 144 166 8,000 660 Climbing Boston Center
03:43PM 42.4064 -72.1983 43° Northeast 139 160 8,700 480 Climbing Boston Center
03:44PM 42.4458 -72.1558 38° Northeast 146 168 9,000 120 Climbing Boston Center
03:45PM 42.4792 -72.1164 41° Northeast 161 185 9,000  Level Boston Center
03:46PM 42.5289 -72.0653 37° Northeast 166 191 9,000  Level Boston Center
03:47PM 42.5642 -72.0200 43° Northeast 177 204 9,100  Climbing Boston Center
03:48PM 42.5889 -71.9467 65° Northeast 190 219 9,100  Level Boston Center
03:49PM 42.6136 -71.8758 65° Northeast 198 228 9,100 -60 Level Boston Center
03:50PM 42.6342 -71.8081 68° East 191 220 9,000  Descending Boston Center
03:51PM 42.6547 -71.7400 68° East 191 220 9,100  Climbing Boston Center
03:52PM 42.6769 -71.6719 66° East 196 226 9,100  Level Boston Center
03:53PM 42.6994 -71.6011 67° East 196 226 9,100 -60 Level Boston Center
03:54PM 42.7239 -71.5328 64° Northeast 196 226 9,000 -60 Descending Boston Center
03:55PM 42.7464 -71.4619 67° East 196 226 9,000  Level Boston Center
03:56PM 42.7686 -71.3964 65° Northeast 196 226 9,000  Level Boston Center
03:57PM 42.7969 -71.3139 65° Northeast 196 226 9,000  Level Boston Center
03:58PM 42.8194 -71.2514 64° Northeast 196 226 9,000  Level Boston Center
03:59PM 42.8456 -71.1742 65° Northeast 196 226 9,000 -60 Level Boston Center
04:00PM 42.8658 -71.1144 65° Northeast 196 226 8,900  Descending Boston Center
04:01PM 42.8833 -71.0500 70° East 202 232 9,000  Climbing KA90
04:02PM 42.9167 -70.9667 61° Northeast 203 234 9,000  Level KA90
04:03PM 42.9333 -70.9000 71° East 203 234 9,000  Level KA90
04:04PM 42.9500 -70.8333 71° East 202 232 9,000  Level KA90
04:05PM 42.9833 -70.7500 61° Northeast 205 236 9,000 -60 Level KA90
04:07PM 43.0021 -70.6571 75° East  Level FlightAware Approximate
04:14PM 43.1169 -70.1992 68° East  Level FlightAware Approximate
04:15PM 43.1355 -70.1351 68° East  Level FlightAware Approximate
04:16PM 43.1540 -70.0709 68° East  Level FlightAware Approximate
04:16PM 43.2094 -69.9789 69° East 201 231 8,900  Level Boston Center
04:17PM 43.1725 -70.0066 68° East  Level FlightAware Approximate
04:17PM 43.2272 -69.9267 65° Northeast 215 247 8,900  Level Boston Center
04:18PM 43.1909 -69.9424 68° East  Level FlightAware Approximate
04:18PM 43.2506 -69.8489 68° East 210 242 8,900  Level Boston Center
04:19PM 43.2093 -69.8781 69° East  Level FlightAware Approximate
04:19PM 43.2678 -69.7853 70° East 200 230 8,800  Level Boston Center
04:20PM 43.2277 -69.8137 69° East  Level FlightAware Approximate
04:20PM 43.2892 -69.7158 67° East 195 224 8,800  Level Boston Center
04:21PM 43.2461 -69.7493 69° East  Level FlightAware Approximate
04:21PM 43.3081 -69.6436 70° East 195 224 8,800  Level Boston Center
04:22PM 43.3294 -69.5714 68° East 195 224 8,900  Climbing Boston Center
04:23PM 43.3506 -69.5019 67° East 195 224 8,800 -60 Descending Boston Center
04:24PM 43.3797 -69.4289 61° Northeast 195 224 8,800  Level Boston Center
04:25PM 43.3992 -69.3681 66° East 195 224 8,800  Level Boston Center
04:26PM 43.4281 -69.2864 64° Northeast 205 236 8,800  Level Boston Center
04:27PM 43.4511 -69.2194 65° Northeast 199 229 8,800  Level Boston Center
04:28PM 43.4742 -69.1497 65° Northeast 199 229 8,900  Climbing Boston Center
04:29PM 43.4972 -69.0767 66° East 198 228 8,800 -60 Descending Boston Center
04:30PM 43.5225 -69.0122 62° Northeast 198 228 8,800  Level Boston Center
04:31PM 43.5411 -68.9397 70° East 198 228 8,800  Level Boston Center
04:32PM 43.5619 -68.8725 67° East 198 228 8,900  Climbing Boston Center
04:33PM 43.5825 -68.7967 69° East 200 230 8,800 -60 Descending Boston Center
04:34PM 43.6008 -68.7239 71° East 200 230 8,800  Level Boston Center
04:35PM 43.6217 -68.6539 68° East 200 230 8,800  Level Boston Center
04:36PM 43.6400 -68.5839 70° East 200 230 8,800  Level Boston Center
04:37PM 43.6583 -68.5108 71° East 194 223 8,800  Level Boston Center
04:38PM 43.6789 -68.4406 68° East 194 223 8,800  Level Boston Center
04:39PM 43.7031 -68.3528 69° East 194 223 8,800  Level Boston Center
04:40PM 43.7233 -68.2825 68° East 194 223 8,800 60 Level Boston Center
04:41PM 43.7167 -68.2333 101° East 200 230 8,900 60 Climbing Moncton Center
04:42PM 43.7333 -68.1667 71° East 200 230 8,900  Level Moncton Center
04:43PM 43.7500 -68.1000 71° East 200 230 8,900  Level Moncton Center
04:44PM 43.8000 -68.0333 44° Northeast 200 230 8,900  Level Moncton Center
04:45PM 43.8000 -67.9333 90° East 200 230 8,900  Level Moncton Center
04:46PM 43.8333 -67.8667 55° Northeast 200 230 8,900  Level Moncton Center
04:47PM 43.8500 -67.8000 71° East 200 230 8,900  Level Moncton Center
04:48PM 43.8667 -67.7333 71° East 200 230 8,900  Level Moncton Center
04:49PM 43.8833 -67.6667 71° East 200 230 8,900  Level Moncton Center
04:50PM 43.9000 -67.6000 71° East 200 230 8,900  Level Moncton Center
04:51PM 43.9333 -67.5333 55° Northeast 200 230 9,000  Climbing Moncton Center
04:52PM 43.9500 -67.4667 71° East 200 230 9,000 -60 Level Moncton Center
04:53PM 43.9667 -67.3667 77° East 200 230 8,900 -60 Descending Moncton Center
04:54PM 43.9833 -67.3000 71° East 200 230 8,900  Level Moncton Center
04:55PM 44.0000 -67.2333 71° East 200 230 8,900  Level Moncton Center
04:56PM 44.0000 -67.1667 90° East 200 230 8,900  Level Moncton Center
04:57PM 44.0333 -67.1000 55° Northeast 190 219 8,900  Level Moncton Center
04:58PM 44.0500 -67.0333 71° East 190 219 8,900  Level Moncton Center
04:59PM 44.0667 -66.9500 74° East 190 219 8,900  Level Moncton Center
05:00PM 44.1000 -66.8833 55° Northeast 190 219 8,900  Level Moncton Center
05:01PM 44.1167 -66.8167 71° East 190 219 8,900  Level Moncton Center
05:02PM 44.1333 -66.7500 71° East 190 219 8,900  Level Moncton Center
05:03PM 44.1500 -66.6833 71° East 190 219 8,900  Level Moncton Center
05:04PM 44.1667 -66.5833 77° East 190 219 8,900  Level Moncton Center
05:05PM 44.1833 -66.5500 55° Northeast 190 219 8,900  Level Moncton Center
05:06PM 44.2000 -66.4500 77° East 190 219 8,900  Level Moncton Center
05:07PM 44.2167 -66.3833 71° East 190 219 8,900  Level Moncton Center
05:08PM 44.2333 -66.3167 71° East 190 219 8,900  Level Moncton Center
05:09PM 44.2500 -66.2333 74° East 190 219 8,900  Level Moncton Center
05:10PM 44.2667 -66.1667 71° East 190 219 8,900  Level Moncton Center
05:11PM 44.2833 -66.1000 71° East 190 219 8,900  Level Moncton Center
05:12PM 44.3000 -66.0333 71° East 190 219 8,900  Level Moncton Center
05:13PM 44.3167 -65.9667 71° East 190 219 9,000  Climbing Moncton Center
05:14PM 44.3333 -65.9000 71° East 190 219 8,900 -60 Descending Moncton Center
05:15PM 44.3500 -65.8167 74° East 190 219 8,900  Level Moncton Center
05:16PM 44.3667 -65.7500 71° East 190 219 8,900  Level Moncton Center
05:17PM 44.4000 -65.6833 55° Northeast 190 219 8,900  Level Moncton Center
05:18PM 44.4000 -65.6167 90° East 190 219 8,900  Level Moncton Center
05:19PM 44.4333 -65.5500 55° Northeast 190 219 8,900  Level Moncton Center
05:20PM 44.4333 -65.4667 90° East 190 219 8,900  Level Moncton Center
05:21PM 44.4667 -65.4000 55° Northeast 190 219 9,000  Climbing Moncton Center
05:22PM 44.4667 -65.3333 90° East 190 219 8,900 -60 Descending Moncton Center
05:23PM 44.5000 -65.2667 55° Northeast 190 219 8,900  Level Moncton Center
05:24PM 44.5167 -65.2000 71° East 190 219 8,900  Level Moncton Center
05:25PM 44.5333 -65.1167 74° East 190 219 8,900  Level Moncton Center
05:26PM 44.5500 -65.0500 71° East 190 219 8,900  Level Moncton Center
05:27PM 44.5500 -64.9667 90° East 190 219 8,900  Level Moncton Center
05:28PM 44.5667 -64.9167 65° Northeast 190 219 8,900 -60 Level Moncton Center
05:29PM 44.5833 -64.8167 77° East 190 219 8,800 -60 Descending Moncton Center
05:30PM 44.6000 -64.7500 71° East 190 219 8,800  Level Moncton Center
05:31PM 44.6167 -64.6833 71° East 190 219 8,800  Level Moncton Center
05:32PM 44.6333 -64.6167 71° East 190 219 8,800  Level Moncton Center
05:33PM 44.6500 -64.5333 74° East 190 219 8,800 -300 Level Moncton Center
05:34PM 44.6667 -64.4667 71° East 200 230 8,300 -900 Descending Moncton Center
05:35PM 44.6833 -64.3667 77° East 220 253 7,100 -1,140 Descending Moncton Center
05:36PM 44.7000 -64.3000 71° East 220 253 6,100 -1,080 Descending Moncton Center
05:37PM 44.7000 -64.2167 90° East 220 253 5,000 -1,020 Descending Moncton Center
05:38PM 44.7167 -64.1333 74° East 220 253 4,100 -540 Descending Moncton Center
05:39PM 44.7333 -64.0500 74° East 200 230 4,000 -120 Descending Moncton Center
05:40PM 44.7333 -63.9667 90° East 190 219 3,900  Descending Moncton Center
05:41PM 44.7500 -63.9000 71° East 180 207 4,000 -240 Climbing Moncton Center
05:42PM 44.7500 -63.8333 90° East 200 230 3,500 -540 Descending Moncton Center
05:43PM 44.7500 -63.7667 90° East 200 230 3,000 -540 Descending Moncton Center
05:44PM 44.7667 -63.6667 77° East 200 230 2,500 -600 Descending Moncton Center
05:45PM 44.7833 -63.6000 71° East 200 230 1,900 -600 Descending Moncton Center
05:46PM 44.8000 -63.5333 71° East 190 219 1,400 -360 Descending Moncton Center
05:47PM 44.8333 -63.4833 47° Northeast 160 184 1,200 -360 Descending Moncton Center
05:48PM 44.8500 -63.4500 55° Northeast 110 127 700 -540 Descending Moncton Center